createdAt,value
2018-10-06T00:01:44.965Z,85.20
2018-10-06T00:04:13.558Z,85.20
2018-10-06T00:06:42.006Z,85.20
2018-10-06T00:09:10.317Z,84.80
2018-10-06T00:11:38.691Z,84.50
2018-10-06T00:14:08.300Z,84.60
2018-10-06T00:16:36.926Z,85.00
2018-10-06T00:19:05.444Z,85.00
2018-10-06T00:21:33.789Z,85.30
2018-10-06T00:24:02.093Z,86.20
2018-10-06T00:26:30.375Z,86.50
2018-10-06T00:28:59.356Z,86.60
2018-10-06T00:31:27.680Z,86.50
2018-10-06T00:33:56.210Z,86.20
2018-10-06T00:36:24.672Z,85.60
2018-10-06T00:38:52.920Z,85.30
2018-10-06T00:41:21.245Z,85.40
2018-10-06T00:43:49.928Z,85.70
2018-10-06T00:46:18.196Z,86.40
2018-10-06T00:48:46.522Z,85.70
2018-10-06T00:51:15.027Z,85.90
2018-10-06T00:53:43.447Z,86.10
2018-10-06T00:56:11.899Z,86.10
2018-10-06T00:58:40.297Z,86.00
2018-10-06T01:01:08.776Z,85.80
2018-10-06T01:03:37.121Z,85.60
2018-10-06T01:06:05.375Z,85.60
2018-10-06T01:08:34.115Z,85.80
2018-10-06T01:11:02.422Z,86.30
2018-10-06T01:13:30.631Z,86.70
2018-10-06T01:15:58.968Z,87.00
2018-10-06T01:18:27.426Z,87.30
2018-10-06T01:20:55.683Z,87.60
2018-10-06T01:23:24.033Z,87.70
2018-10-06T01:25:52.755Z,87.80
2018-10-06T01:28:21.140Z,88.60
2018-10-06T01:30:49.463Z,87.90
2018-10-06T01:33:18.332Z,88.10
2018-10-06T01:35:46.985Z,88.00
2018-10-06T01:38:15.193Z,87.80
2018-10-06T01:40:43.526Z,87.80
2018-10-06T01:43:11.825Z,87.90
2018-10-06T01:45:40.082Z,88.00
2018-10-06T01:48:08.334Z,88.30
2018-10-06T01:50:37.263Z,88.30
2018-10-06T01:53:05.519Z,88.10
2018-10-06T01:55:33.835Z,88.00
2018-10-06T01:58:03.145Z,87.90
2018-10-06T02:00:31.415Z,87.90
2018-10-06T02:02:59.688Z,88.10
2018-10-06T02:05:28.051Z,88.40
2018-10-06T02:08:02.503Z,88.30
2018-10-06T02:10:31.546Z,88.30
2018-10-06T02:13:02.615Z,88.60
2018-10-06T02:15:30.841Z,87.90
2018-10-06T02:17:59.202Z,88.20
2018-10-06T02:20:33.493Z,88.70
2018-10-06T02:23:01.948Z,89.00
2018-10-06T02:25:30.237Z,89.10
2018-10-06T02:28:03.574Z,88.90
2018-10-06T02:30:31.849Z,88.80
2018-10-06T02:33:00.062Z,88.70
2018-10-06T02:35:28.404Z,88.50
2018-10-06T02:37:56.901Z,88.30
2018-10-06T02:40:25.286Z,88.40
2018-10-06T02:42:53.620Z,88.30
2018-10-06T02:45:21.993Z,88.30
2018-10-06T02:47:50.263Z,88.40
2018-10-06T02:50:18.610Z,88.80
2018-10-06T02:52:47.093Z,89.00
2018-10-06T02:55:15.427Z,89.30
2018-10-06T02:57:43.646Z,90.00
2018-10-06T03:00:11.921Z,89.30
2018-10-06T03:02:40.216Z,89.30
2018-10-06T03:05:08.483Z,89.40
2018-10-06T03:07:37.279Z,89.50
2018-10-06T03:10:06.941Z,89.80
2018-10-06T03:12:35.352Z,90.10
2018-10-06T03:15:03.853Z,90.20
2018-10-06T03:17:32.149Z,90.10
2018-10-06T03:20:01.792Z,90.00
2018-10-06T03:22:30.041Z,90.10
2018-10-06T03:24:58.442Z,90.00
2018-10-06T03:27:26.750Z,90.00
2018-10-06T03:29:54.990Z,90.10
2018-10-06T03:32:23.321Z,90.30
2018-10-06T03:34:51.753Z,90.40
2018-10-06T03:37:20.426Z,90.50
2018-10-06T03:39:49.010Z,90.60
2018-10-06T03:42:17.644Z,90.60
2018-10-06T03:44:45.916Z,90.60
2018-10-06T03:47:14.276Z,90.50
2018-10-06T03:49:42.547Z,90.40
2018-10-06T03:52:11.001Z,90.40
2018-10-06T03:54:39.438Z,90.40
2018-10-06T03:57:07.747Z,90.30
2018-10-06T03:59:36.073Z,90.20
2018-10-06T04:02:05.510Z,90.20
2018-10-06T04:04:33.843Z,90.20
2018-10-06T04:07:02.496Z,90.40
2018-10-06T04:09:30.843Z,90.50
2018-10-06T04:11:59.234Z,90.40
2018-10-06T04:14:27.461Z,90.30
2018-10-06T04:16:55.814Z,90.30
2018-10-06T04:19:24.023Z,90.30
2018-10-06T04:21:52.313Z,90.40
2018-10-06T04:24:20.721Z,90.50
2018-10-06T04:26:48.908Z,90.70
2018-10-06T04:29:17.196Z,90.70
2018-10-06T04:31:45.959Z,90.80
2018-10-06T04:34:14.296Z,90.70
2018-10-06T04:36:42.570Z,90.60
2018-10-06T04:39:12.061Z,90.60
2018-10-06T04:41:40.404Z,90.60
2018-10-06T04:44:09.310Z,90.50
2018-10-06T04:46:37.773Z,90.40
2018-10-06T04:51:43.028Z,90.40
2018-10-06T04:54:11.544Z,90.40
2018-10-06T04:56:40.060Z,90.40
2018-10-06T04:59:08.360Z,90.30
2018-10-06T05:01:36.629Z,90.30
2018-10-06T05:04:05.070Z,90.40
2018-10-06T05:06:34.295Z,90.30
2018-10-06T05:09:02.885Z,90.30
2018-10-06T05:11:31.288Z,90.20
2018-10-06T05:13:59.581Z,90.30
2018-10-06T05:16:27.857Z,90.30
2018-10-06T05:18:56.232Z,90.50
2018-10-06T05:21:24.683Z,90.60
2018-10-06T05:23:52.974Z,90.60
2018-10-06T05:26:21.289Z,90.60
2018-10-06T05:28:49.651Z,90.70
2018-10-06T05:31:18.028Z,90.70
2018-10-06T05:33:46.361Z,90.60
2018-10-06T05:36:14.721Z,90.60
2018-10-06T05:38:42.905Z,90.40
2018-10-06T05:41:11.339Z,90.50
2018-10-06T05:43:39.717Z,90.50
2018-10-06T05:46:08.555Z,90.30
2018-10-06T05:48:36.783Z,90.20
2018-10-06T05:51:05.787Z,90.10
2018-10-06T05:53:34.154Z,90.10
2018-10-06T05:56:02.564Z,90.30
2018-10-06T05:58:30.908Z,90.20
2018-10-06T06:00:59.219Z,90.00
2018-10-06T06:03:27.622Z,89.70
2018-10-06T06:05:55.958Z,89.30
2018-10-06T06:08:24.300Z,88.50
2018-10-06T06:10:52.685Z,87.70
2018-10-06T06:13:20.931Z,87.20
2018-10-06T06:15:49.262Z,86.80
2018-10-06T06:18:17.525Z,86.60
2018-10-06T06:20:45.884Z,86.30
2018-10-06T06:23:14.291Z,86.10
2018-10-06T06:25:42.671Z,86.10
2018-10-06T06:28:11.277Z,86.00
2018-10-06T06:30:39.902Z,85.70
2018-10-06T06:33:08.451Z,85.50
2018-10-06T06:35:36.814Z,85.90
2018-10-06T06:38:05.204Z,85.50
2018-10-06T06:40:33.538Z,85.50
2018-10-06T06:43:01.894Z,86.50
2018-10-06T06:45:30.239Z,85.30
2018-10-06T06:47:58.809Z,85.30
2018-10-06T06:50:27.282Z,85.30
2018-10-06T06:52:55.761Z,85.40
2018-10-06T06:55:24.160Z,85.40
2018-10-06T06:57:52.653Z,85.40
2018-10-06T07:00:21.769Z,85.40
2018-10-06T07:02:50.195Z,85.50
2018-10-06T07:05:24.237Z,84.70
2018-10-06T07:07:56.606Z,84.50
2018-10-06T07:10:25.287Z,84.20
2018-10-06T07:12:53.803Z,84.30
2018-10-06T07:15:22.182Z,84.60
2018-10-06T07:17:50.534Z,84.70
2018-10-06T07:20:18.905Z,84.80
2018-10-06T07:22:47.337Z,85.00
2018-10-06T07:25:16.226Z,84.70
2018-10-06T07:27:44.892Z,84.20
2018-10-06T07:30:13.467Z,83.70
2018-10-06T07:32:41.920Z,83.30
2018-10-06T07:35:10.715Z,82.70
2018-10-06T07:37:39.321Z,81.70
2018-10-06T07:40:08.327Z,80.60
2018-10-06T07:42:36.785Z,80.30
2018-10-06T07:45:05.267Z,79.90
2018-10-06T07:47:33.863Z,79.20
2018-10-06T07:50:02.242Z,77.30
2018-10-06T07:52:30.786Z,77.40
2018-10-06T07:54:59.441Z,77.00
2018-10-06T07:57:27.810Z,76.80
2018-10-06T07:59:56.156Z,76.20
2018-10-06T08:02:24.628Z,75.00
2018-10-06T08:04:53.206Z,74.60
2018-10-06T08:07:23.403Z,74.40
2018-10-06T08:09:52.285Z,72.90
2018-10-06T08:12:20.820Z,72.30
2018-10-06T08:14:49.492Z,71.70
2018-10-06T08:17:18.731Z,71.50
2018-10-06T08:19:47.505Z,70.50
2018-10-06T08:22:18.176Z,70.50
2018-10-06T08:24:46.766Z,69.70
2018-10-06T08:27:15.822Z,69.50
2018-10-06T08:29:44.680Z,69.00
2018-10-06T08:32:13.581Z,69.00
2018-10-06T08:34:45.116Z,69.20
2018-10-06T08:37:16.131Z,69.20
2018-10-06T08:39:47.832Z,69.20
2018-10-06T08:42:17.063Z,69.20
2018-10-06T08:44:45.507Z,69.10
2018-10-06T08:47:14.056Z,69.30
2018-10-06T08:49:42.674Z,70.00
2018-10-06T08:52:11.209Z,69.30
2018-10-06T08:54:40.300Z,69.30
2018-10-06T08:57:08.697Z,68.80
2018-10-06T08:59:37.734Z,68.50
2018-10-06T09:02:06.964Z,68.20
2018-10-06T09:04:35.555Z,68.10
2018-10-06T09:07:04.562Z,67.20
2018-10-06T09:09:34.947Z,66.00
2018-10-06T09:12:04.467Z,65.50
2018-10-06T09:14:32.972Z,63.50
2018-10-06T09:17:01.462Z,63.30
2018-10-06T09:19:29.926Z,61.80
2018-10-06T09:21:58.296Z,61.20
2018-10-06T09:24:26.944Z,61.40
2018-10-06T09:26:55.399Z,60.00
2018-10-06T09:29:23.754Z,59.40
2018-10-06T09:31:52.058Z,58.40
2018-10-06T09:34:20.378Z,58.20
2018-10-06T09:36:48.744Z,55.60
2018-10-06T09:39:17.467Z,54.50
2018-10-06T09:41:46.124Z,53.20
2018-10-06T09:44:14.648Z,53.30
2018-10-06T09:46:43.205Z,52.00
2018-10-06T09:49:11.755Z,51.20
2018-10-06T09:51:40.126Z,50.70
2018-10-06T09:54:11.324Z,50.60
2018-10-06T09:56:39.678Z,50.20
2018-10-06T09:59:08.085Z,50.60
2018-10-06T10:01:42.088Z,50.10
2018-10-06T10:04:12.088Z,49.90
2018-10-06T10:06:40.819Z,50.20
2018-10-06T10:09:11.488Z,50.20
2018-10-06T10:11:40.092Z,50.30
2018-10-06T10:14:09.363Z,50.30
2018-10-06T10:16:37.888Z,49.60
2018-10-06T10:19:06.676Z,49.60
2018-10-06T10:21:35.176Z,48.80
2018-10-06T10:24:06.472Z,48.50
2018-10-06T10:50:21.699Z,47.60
2018-10-06T10:52:50.446Z,43.10
2018-10-06T10:55:19.531Z,44.10
2018-10-06T10:57:48.350Z,44.60
2018-10-06T11:00:17.161Z,42.80
2018-10-06T11:02:46.319Z,42.60
2018-10-06T11:05:15.198Z,42.00
2018-10-06T11:07:43.718Z,42.40
2018-10-06T11:10:12.404Z,41.40
2018-10-06T11:12:41.086Z,41.40
2018-10-06T11:15:09.786Z,41.00
2018-10-06T11:17:38.189Z,40.90
2018-10-06T11:20:09.814Z,40.50
2018-10-06T11:22:38.395Z,40.80
2018-10-06T11:25:06.997Z,40.50
2018-10-06T11:27:35.661Z,40.60
2018-10-06T11:30:04.868Z,40.30
2018-10-06T11:32:34.265Z,40.20
2018-10-06T11:35:02.737Z,40.60
2018-10-06T11:37:31.425Z,40.60
2018-10-06T11:39:59.930Z,39.60
2018-10-06T11:42:28.514Z,40.50
2018-10-06T11:44:57.085Z,40.00
2018-10-06T11:47:25.448Z,40.00
2018-10-06T11:49:54.018Z,40.00
2018-10-06T11:52:22.526Z,40.70
2018-10-06T11:54:50.989Z,40.00
2018-10-06T11:57:19.525Z,40.30
2018-10-06T11:59:48.299Z,40.20
2018-10-06T12:02:16.771Z,41.10
2018-10-06T12:04:45.378Z,41.00
2018-10-06T12:07:13.949Z,41.30
2018-10-06T12:09:42.906Z,41.60
2018-10-06T12:12:11.389Z,41.80
2018-10-06T12:14:40.042Z,42.00
2018-10-06T12:17:08.528Z,42.60
2018-10-06T12:19:38.995Z,42.50
2018-10-06T12:22:07.898Z,42.70
2018-10-06T12:24:38.111Z,42.80
2018-10-06T12:27:07.112Z,42.80
2018-10-06T12:29:36.165Z,43.10
2018-10-06T12:32:05.033Z,43.40
2018-10-06T12:34:33.688Z,43.10
2018-10-06T12:37:02.249Z,43.30
2018-10-06T12:39:30.736Z,43.20
2018-10-06T12:41:59.224Z,42.70
2018-10-06T12:44:27.631Z,43.40
2018-10-06T12:46:56.359Z,43.00
2018-10-06T12:49:24.997Z,42.90
2018-10-06T12:51:54.001Z,42.80
2018-10-06T12:54:22.538Z,42.80
2018-10-06T12:56:51.293Z,42.50
2018-10-06T12:59:19.898Z,42.50
2018-10-06T13:01:48.710Z,42.30
2018-10-06T13:04:17.403Z,42.40
2018-10-06T13:06:45.849Z,42.60
2018-10-06T13:09:14.565Z,41.90
2018-10-06T13:11:43.403Z,41.90
2018-10-06T13:14:12.008Z,41.80
2018-10-06T13:16:40.668Z,42.10
2018-10-06T13:19:09.134Z,42.10
2018-10-06T13:21:37.894Z,42.30
2018-10-06T13:24:06.487Z,42.40
2018-10-06T13:26:35.678Z,42.50
2018-10-06T13:29:04.587Z,42.50
2018-10-06T13:31:34.420Z,41.90
2018-10-06T13:34:03.010Z,41.30
2018-10-06T13:36:31.602Z,41.20
2018-10-06T13:39:00.638Z,41.00
2018-10-06T13:41:30.840Z,40.90
2018-10-06T13:44:00.085Z,41.20
2018-10-06T13:46:29.790Z,41.10
2018-10-06T13:48:58.679Z,40.80
2018-10-06T13:51:27.522Z,41.40
2018-10-06T13:53:56.107Z,41.40
2018-10-06T13:56:26.478Z,41.50
2018-10-06T13:58:55.227Z,41.30
2018-10-06T14:01:24.049Z,41.70
2018-10-06T14:03:53.267Z,41.30
2018-10-06T14:06:22.278Z,40.70
2018-10-06T14:08:51.111Z,40.80
2018-10-06T14:11:20.163Z,40.60
2018-10-06T14:13:50.045Z,40.10
2018-10-06T14:16:18.747Z,40.60
2018-10-06T14:18:48.186Z,40.50
2018-10-06T14:21:16.933Z,40.80
2018-10-06T14:23:45.842Z,41.30
2018-10-06T14:26:14.922Z,41.60
2018-10-06T14:28:43.924Z,41.70
2018-10-06T14:31:12.581Z,41.30
2018-10-06T14:33:41.163Z,40.60
2018-10-06T14:36:10.665Z,40.90
2018-10-06T14:38:59.149Z,41.10
2018-10-06T14:41:28.214Z,41.30
2018-10-06T14:43:58.316Z,40.90
2018-10-06T14:46:27.040Z,40.40
2018-10-06T14:48:55.487Z,40.40
2018-10-06T14:51:24.326Z,40.40
2018-10-06T14:53:53.219Z,40.10
2018-10-06T14:56:22.010Z,39.60
2018-10-06T14:58:51.126Z,40.20
2018-10-06T15:01:19.733Z,40.00
2018-10-06T15:03:48.438Z,39.90
2018-10-06T15:06:17.083Z,39.80
2018-10-06T15:08:48.102Z,40.50
2018-10-06T15:11:16.623Z,40.40
2018-10-06T15:16:29.860Z,40.60
2018-10-06T15:18:58.707Z,40.90
2018-10-06T15:21:27.319Z,41.20
2018-10-06T15:23:55.548Z,41.10
2018-10-06T15:26:24.472Z,41.30
2018-10-06T15:28:53.038Z,41.60
2018-10-06T15:31:22.027Z,42.00
2018-10-06T15:33:50.758Z,42.20
2018-10-06T15:39:08.232Z,41.90
2018-10-06T15:41:36.895Z,41.80
2018-10-06T15:44:05.310Z,41.90
2018-10-06T15:46:33.837Z,42.10
2018-10-06T15:49:02.313Z,42.20
2018-10-06T15:51:33.333Z,42.10
2018-10-06T15:54:02.523Z,42.40
2018-10-06T15:56:32.038Z,42.60
2018-10-06T15:59:00.675Z,42.60
2018-10-06T16:01:29.305Z,43.10
2018-10-06T16:03:58.137Z,43.20
2018-10-06T16:06:26.609Z,43.50
2018-10-06T16:08:55.297Z,44.30
2018-10-06T16:11:23.914Z,45.20
2018-10-06T16:13:52.970Z,44.30
2018-10-06T16:16:21.360Z,44.90
2018-10-06T16:18:50.052Z,45.10
2018-10-06T16:21:18.503Z,45.40
2018-10-06T16:23:47.148Z,45.50
2018-10-06T16:26:15.663Z,46.20
2018-10-06T16:28:44.108Z,46.10
2018-10-06T16:31:12.850Z,46.20
2018-10-06T16:33:41.414Z,46.60
2018-10-06T16:36:09.727Z,47.20
2018-10-06T16:38:38.389Z,47.70
2018-10-06T16:41:07.118Z,48.40
2018-10-06T16:43:35.678Z,48.80
2018-10-06T16:46:04.190Z,49.80
2018-10-06T16:48:32.771Z,49.80
2018-10-06T16:51:01.844Z,50.10
2018-10-06T16:53:31.373Z,50.20
2018-10-06T16:56:00.907Z,50.60
2018-10-06T16:58:37.257Z,51.30
2018-10-06T17:01:06.320Z,52.00
2018-10-06T17:03:34.779Z,52.10
2018-10-06T17:06:03.118Z,52.90
2018-10-06T17:08:32.150Z,53.70
2018-10-06T17:11:04.883Z,54.30
2018-10-06T17:13:33.454Z,54.30
2018-10-06T17:16:02.339Z,54.30
2018-10-06T17:18:31.374Z,55.20
2018-10-06T17:21:03.641Z,54.90
2018-10-06T17:23:32.701Z,55.20
2018-10-06T17:26:06.615Z,55.80
2018-10-06T17:28:35.326Z,55.90
2018-10-06T17:31:04.223Z,56.30
2018-10-06T17:33:32.761Z,56.80
2018-10-06T17:36:01.348Z,57.20
2018-10-06T17:38:30.534Z,57.50
2018-10-06T17:41:00.077Z,58.00
2018-10-06T17:43:30.312Z,58.50
2018-10-06T17:45:59.714Z,59.20
2018-10-06T17:48:28.361Z,59.70
2018-10-06T17:50:57.652Z,60.10
2018-10-06T17:53:28.264Z,60.50
2018-10-06T17:55:57.324Z,61.00
2018-10-06T17:58:26.335Z,61.40
2018-10-06T18:00:55.407Z,61.80
2018-10-06T18:03:24.081Z,62.30
2018-10-06T18:05:52.841Z,62.20
2018-10-06T18:08:22.211Z,62.10
2018-10-06T18:10:51.243Z,62.20
2018-10-06T18:13:19.914Z,62.70
2018-10-06T18:15:48.554Z,63.20
2018-10-06T18:18:17.035Z,63.50
2018-10-06T18:20:45.455Z,63.90
2018-10-06T18:23:13.873Z,64.10
2018-10-06T18:25:42.635Z,64.20
2018-10-06T18:28:11.044Z,64.60
2018-10-06T18:30:39.600Z,64.90
2018-10-06T18:33:08.476Z,65.50
2018-10-06T18:35:37.289Z,65.70
2018-10-06T18:38:05.654Z,66.00
2018-10-06T18:40:34.350Z,66.00
2018-10-06T18:43:02.810Z,66.20
2018-10-06T18:45:32.041Z,66.60
2018-10-06T18:48:00.851Z,66.40
2018-10-06T18:50:29.444Z,66.30
2018-10-06T18:52:58.119Z,66.60
2018-10-06T18:55:26.645Z,66.70
2018-10-06T18:57:55.161Z,67.00
2018-10-06T19:00:23.746Z,67.20
2018-10-06T19:02:52.224Z,67.70
2018-10-06T19:05:20.737Z,68.10
2018-10-06T19:07:49.399Z,68.20
2018-10-06T19:10:18.008Z,68.20
2018-10-06T19:12:46.570Z,68.20
2018-10-06T19:15:15.135Z,68.20
2018-10-06T19:17:44.108Z,68.00
2018-10-06T19:20:12.514Z,68.70
2018-10-06T19:22:41.445Z,68.20
2018-10-06T19:25:09.914Z,68.00
2018-10-06T19:27:38.406Z,68.00
2018-10-06T19:30:06.981Z,68.30
2018-10-06T19:32:35.420Z,68.30
2018-10-06T19:35:04.044Z,68.40
2018-10-06T19:37:35.844Z,68.40
2018-10-06T19:40:04.588Z,68.70
2018-10-06T19:42:33.183Z,68.70
2018-10-06T19:45:02.002Z,68.70
2018-10-06T19:47:31.091Z,68.70
2018-10-06T19:49:59.682Z,68.90
2018-10-06T19:52:28.312Z,69.00
2018-10-06T19:54:57.284Z,69.20
2018-10-06T19:57:26.068Z,69.80
2018-10-06T19:59:54.438Z,70.40
2018-10-06T20:02:22.843Z,71.10
2018-10-06T20:04:51.581Z,70.30
2018-10-06T20:07:20.469Z,70.30
2018-10-06T20:09:48.961Z,70.40
2018-10-06T20:12:17.416Z,70.90
2018-10-06T20:14:46.335Z,71.60
2018-10-06T20:17:15.042Z,70.80
2018-10-06T20:19:43.504Z,71.00
2018-10-06T20:22:12.331Z,71.10
2018-10-06T20:24:40.846Z,71.40
2018-10-06T20:27:09.806Z,71.20
2018-10-06T20:29:38.487Z,71.20
2018-10-06T20:32:07.274Z,71.30
2018-10-06T20:34:36.378Z,71.60
2018-10-06T20:37:05.035Z,71.70
2018-10-06T20:39:33.706Z,71.90
2018-10-06T20:42:02.289Z,72.00
2018-10-06T20:44:30.667Z,71.80
2018-10-06T20:46:59.097Z,71.70
2018-10-06T20:49:27.424Z,71.70
2018-10-06T20:51:55.808Z,71.60
2018-10-06T20:54:24.317Z,71.50
2018-10-06T20:56:52.859Z,71.50
2018-10-06T20:59:21.221Z,71.50
2018-10-06T21:01:50.300Z,71.60
2018-10-06T21:04:18.692Z,71.70
2018-10-06T21:06:47.477Z,71.80
2018-10-06T21:09:15.707Z,72.00
2018-10-06T21:11:44.058Z,72.00
2018-10-06T21:14:13.069Z,72.00
2018-10-06T21:16:41.595Z,72.10
2018-10-06T21:19:10.028Z,72.00
2018-10-06T21:21:38.416Z,72.10
2018-10-06T21:24:06.827Z,72.20
2018-10-06T21:26:35.477Z,72.30
2018-10-06T21:29:04.189Z,72.00
2018-10-06T21:31:32.585Z,72.60
2018-10-06T21:34:00.838Z,72.80
2018-10-06T21:36:29.208Z,72.80
2018-10-06T21:38:57.653Z,73.10
2018-10-06T21:41:26.133Z,73.20
2018-10-06T21:43:54.774Z,73.60
2018-10-06T21:46:23.102Z,73.60
2018-10-06T21:48:51.452Z,73.50
2018-10-06T21:51:19.774Z,73.60
2018-10-06T21:53:48.220Z,73.60
2018-10-06T21:56:16.814Z,73.50
2018-10-06T21:58:45.290Z,73.50
2018-10-06T22:01:14.313Z,73.20
2018-10-06T22:03:42.848Z,73.40
2018-10-06T22:06:11.606Z,73.50
2018-10-06T22:08:40.100Z,73.60
2018-10-06T22:11:08.538Z,73.60
2018-10-06T22:13:37.053Z,73.40
2018-10-06T22:16:05.623Z,73.50
2018-10-06T22:18:34.044Z,73.60
2018-10-06T22:21:02.943Z,73.70
2018-10-06T22:23:31.510Z,73.90
2018-10-06T22:26:00.404Z,73.80
2018-10-06T22:28:29.235Z,74.00
2018-10-06T22:30:57.796Z,74.20
2018-10-06T22:33:26.192Z,74.20
2018-10-06T22:35:54.660Z,74.40
2018-10-06T22:38:23.163Z,74.50
2018-10-06T22:40:51.685Z,74.50
2018-10-06T22:43:20.136Z,74.70
2018-10-06T22:45:48.491Z,75.20
2018-10-06T22:48:16.996Z,75.50
2018-10-06T22:50:45.325Z,75.60
2018-10-06T22:53:13.615Z,75.70
2018-10-06T22:55:42.114Z,75.90
2018-10-06T22:58:10.420Z,76.10
2018-10-06T23:00:38.865Z,76.10
2018-10-06T23:03:07.335Z,76.20
2018-10-06T23:05:35.565Z,76.30
2018-10-06T23:08:03.881Z,76.20
2018-10-06T23:10:32.302Z,76.30
2018-10-06T23:13:00.775Z,76.20
2018-10-06T23:15:29.125Z,76.40
2018-10-06T23:17:57.464Z,76.10
2018-10-06T23:20:25.838Z,76.30
2018-10-06T23:22:54.127Z,76.30
2018-10-06T23:25:22.541Z,76.40
2018-10-06T23:27:51.242Z,76.30
2018-10-06T23:33:06.789Z,76.10
2018-10-06T23:35:35.154Z,76.20
2018-10-06T23:38:03.520Z,76.00
2018-10-06T23:40:31.837Z,75.70
2018-10-06T23:43:00.307Z,75.60
2018-10-06T23:45:28.631Z,75.40
2018-10-06T23:47:56.885Z,75.50
2018-10-06T23:50:25.223Z,75.50
2018-10-06T23:52:53.605Z,75.60
2018-10-06T23:55:22.255Z,75.60
2018-10-06T23:57:50.592Z,75.40
